createdAt,value
2023-01-03T00:00:01.462Z,7.10
2023-01-03T00:10:00.983Z,10.00
2023-01-03T00:20:01.360Z,6.20
2023-01-03T00:30:02.232Z,9.20
2023-01-03T00:50:01.445Z,7.70
2023-01-03T01:00:01.305Z,15.60
2023-01-03T01:10:01.383Z,18.30
2023-01-03T01:20:01.168Z,7.90
2023-01-03T01:30:01.492Z,4.60
2023-01-03T01:40:01.046Z,6.70
2023-01-03T01:50:01.135Z,4.70
2023-01-03T02:00:01.219Z,5.30
2023-01-03T02:10:01.660Z,8.70
2023-01-03T02:20:01.181Z,4.10
2023-01-03T02:30:01.034Z,8.80
2023-01-03T02:40:01.171Z,6.50
2023-01-03T02:50:01.164Z,7.50
2023-01-03T03:10:01.279Z,8.30
2023-01-03T03:20:06.161Z,6.80
2023-01-03T03:30:01.212Z,7.90
2023-01-03T03:40:01.495Z,5.40
2023-01-03T03:50:01.203Z,6.80
2023-01-03T04:10:01.996Z,3.60
2023-01-03T04:20:02.845Z,7.10
2023-01-03T04:30:02.095Z,4.40
2023-01-03T04:40:01.133Z,5.70
2023-01-03T04:50:00.985Z,4.90
2023-01-03T05:00:01.102Z,6.90
2023-01-03T05:10:01.272Z,5.80
2023-01-03T05:30:01.051Z,6.60
2023-01-03T05:40:01.037Z,4.60
2023-01-03T05:50:01.187Z,4.10
2023-01-03T06:00:01.555Z,6.70
2023-01-03T06:10:01.237Z,8.50
2023-01-03T06:20:01.261Z,5.50
2023-01-03T06:30:01.022Z,9.70
2023-01-03T06:40:01.278Z,7.20
2023-01-03T06:50:00.975Z,6.70
2023-01-03T07:00:01.283Z,6.10
2023-01-03T07:10:01.289Z,7.30
2023-01-03T07:20:01.058Z,6.40
2023-01-03T07:30:01.032Z,5.20
2023-01-03T07:40:01.287Z,7.20
2023-01-03T07:50:00.307Z,4.50
2023-01-03T08:10:01.322Z,4.60
2023-01-03T08:20:01.312Z,6.30
2023-01-03T08:30:01.878Z,7.60
2023-01-03T08:40:01.083Z,4.90
2023-01-03T08:50:01.038Z,7.50
2023-01-03T09:00:01.861Z,10.40
2023-01-03T09:10:01.086Z,6.10
2023-01-03T09:20:01.000Z,4.10
2023-01-03T09:30:00.924Z,8.30
2023-01-03T09:40:03.428Z,4.10
2023-01-03T10:00:03.316Z,5.90
2023-01-03T10:10:00.288Z,11.10
2023-01-03T10:20:03.079Z,7.70
2023-01-03T10:30:01.325Z,6.70
2023-01-03T10:40:01.545Z,6.10
2023-01-03T10:50:01.910Z,8.50
2023-01-03T11:00:02.700Z,12.90
2023-01-03T11:10:01.008Z,9.80
2023-01-03T11:20:02.336Z,9.40
2023-01-03T11:30:01.320Z,10.40
2023-01-03T11:40:01.019Z,9.00
2023-01-03T11:50:01.008Z,11.00
2023-01-03T12:00:01.040Z,13.00
2023-01-03T12:10:01.055Z,14.30
2023-01-03T12:20:01.917Z,12.60
2023-01-03T12:30:02.194Z,9.60
2023-01-03T12:40:01.213Z,10.60
2023-01-03T12:50:01.354Z,10.90
2023-01-03T13:00:02.021Z,18.70
2023-01-03T13:10:01.282Z,11.00
2023-01-03T13:20:03.409Z,9.80
2023-01-03T13:30:01.258Z,8.70
2023-01-03T13:40:01.117Z,13.40
2023-01-03T13:50:03.021Z,14.60
2023-01-03T14:00:01.169Z,13.40
2023-01-03T14:10:01.102Z,18.00
2023-01-03T14:20:01.128Z,9.50
2023-01-03T14:30:01.257Z,9.50
2023-01-03T14:40:01.337Z,14.00
2023-01-03T14:50:01.492Z,12.20
2023-01-03T15:00:01.907Z,7.50
2023-01-03T15:10:02.874Z,11.20
2023-01-03T15:20:03.156Z,13.00
2023-01-03T15:30:02.672Z,20.90
2023-01-03T15:40:01.157Z,12.70
2023-01-03T15:50:02.383Z,9.30
2023-01-03T16:00:01.146Z,10.10
2023-01-03T16:10:02.835Z,13.50
2023-01-03T16:20:01.096Z,12.40
2023-01-03T16:30:01.441Z,15.60
2023-01-03T16:40:00.337Z,13.90
2023-01-03T16:50:01.567Z,15.10
2023-01-03T17:00:01.590Z,12.70
2023-01-03T17:10:02.118Z,21.90
2023-01-03T17:20:04.513Z,16.90
2023-01-03T17:30:01.579Z,25.70
2023-01-03T17:40:02.397Z,24.10
2023-01-03T17:50:01.269Z,26.20
2023-01-03T18:00:01.338Z,19.40
2023-01-03T18:10:03.309Z,14.30
2023-01-03T18:20:01.585Z,19.40
2023-01-03T18:30:01.911Z,19.50
2023-01-03T18:40:01.352Z,26.40
2023-01-03T18:50:01.466Z,32.00
2023-01-03T19:00:01.173Z,31.10
2023-01-03T19:10:01.363Z,25.10
2023-01-03T19:20:01.104Z,21.60
2023-01-03T19:30:01.137Z,22.30
2023-01-03T19:50:03.827Z,25.80
2023-01-03T20:00:03.387Z,23.00
2023-01-03T20:10:01.968Z,23.10
2023-01-03T20:20:02.449Z,25.70
2023-01-03T20:30:01.065Z,25.70
2023-01-03T20:40:01.913Z,26.20
2023-01-03T20:50:01.562Z,25.50
2023-01-03T21:00:01.265Z,22.70
2023-01-03T21:10:00.987Z,19.10
2023-01-03T21:20:01.605Z,19.80
2023-01-03T21:30:03.680Z,19.30
2023-01-03T21:40:01.534Z,20.50
2023-01-03T21:50:02.425Z,21.90
2023-01-03T22:00:01.268Z,20.60
2023-01-03T22:10:01.521Z,14.50
2023-01-03T22:20:01.132Z,13.70
2023-01-03T22:30:01.279Z,10.10
2023-01-03T22:40:02.014Z,14.10
2023-01-03T22:50:01.239Z,12.10
2023-01-03T23:10:02.170Z,13.70
2023-01-03T23:20:02.535Z,12.30
2023-01-03T23:30:02.089Z,16.10
2023-01-03T23:40:01.293Z,12.60
2023-01-03T23:50:02.128Z,14.00
